This is the latest recevied weather packets stored in our database for station/object E22FEY-1. If no packets are shown the sender has not sent any weather packets the latest 10 day(s).
| Time | Temp. | Humidity | Pressure | Rain* | Wind** | Luminosity | Snow |
|---|---|---|---|---|---|---|---|
| 1777292747 | 33.89° C | 55% | 1006 hPa | - | - | 0 W/m² | - |
| 1777291823 | 33.89° C | 56% | 1006 hPa | - | - | 0 W/m² | - |
| 1777290899 | 34.44° C | 54% | 1006 hPa | - | - | 0 W/m² | - |
| 1777289974 | 33.89° C | 54% | 1005 hPa | - | - | 0 W/m² | - |
| 1777289050 | 33.89° C | 54% | 1006 hPa | - | - | 0 W/m² | - |
| 1777288126 | 34.44° C | 52% | 1005 hPa | - | - | 0 W/m² | - |
| 1777287202 | 36.11° C | 47% | 1005 hPa | - | - | 0 W/m² | - |
| 1777286277 | 35.56° C | 47% | 1005 hPa | - | - | 0 W/m² | - |
| 1777285353 | 36.11° C | 44% | 1005 hPa | - | - | 0 W/m² | - |
| 1777284429 | 36.11° C | 45% | 1005 hPa | - | - | 0 W/m² | - |
| 1777283505 | 37.22° C | 43% | 1005 hPa | - | - | 0 W/m² | - |
| 1777282580 | 38.33° C | 42% | 1005 hPa | - | - | 0 W/m² | - |
| 1777281656 | 37.22° C | 45% | 1005 hPa | - | - | 0 W/m² | - |
| 1777280731 | 37.22° C | 46% | 1005 hPa | - | - | 0 W/m² | - |
| 1777279808 | 37.78° C | 45% | 1005 hPa | - | - | 0 W/m² | - |
| 1777278883 | 38.89° C | 42% | 1005 hPa | - | - | 0 W/m² | - |
| 1777277959 | 38.33° C | 42% | 1005 hPa | - | - | 0 W/m² | - |
| 1777277035 | 38.89° C | 41% | 1005 hPa | - | - | 0 W/m² | - |
| 1777276111 | 39.44° C | 41% | 1006 hPa | - | - | 0 W/m² | - |
| 1777275186 | 39.44° C | 39% | 1006 hPa | - | - | 0 W/m² | - |
| 1777274262 | 39.44° C | 40% | 1006 hPa | - | - | 0 W/m² | - |
| 1777273338 | 38.89° C | 40% | 1006 hPa | - | - | 0 W/m² | - |
| 1777272414 | 39.44° C | 38% | 1006 hPa | - | - | 0 W/m² | - |
| 1777271489 | 38.89° C | 41% | 1007 hPa | - | - | 0 W/m² | - |
| 1777270564 | 38.33° C | 43% | 1007 hPa | - | - | 0 W/m² | - |
* Rain since midnight (hover to see other rain measurements)
** Current wind speed in m/s (hover to see current wind gust speed)